Time;durP1;ratioP1;P1;durP2;ratioP2;P2;SDS_P1;SDS_P2;PMS_P1;PMS_P2;Temp;Humidity;BMP_temperature;BMP_pressure;BME280_temperature;BME280_humidity;BME280_pressure;Samples;Min_cycle;Max_cycle;Signal;HPM_P1;HPM_P2
2022/02/09 00:01:32;;;;;;;7.90;2.90;;;;;;;1.84;60.60;97516.69;5065667;28;20405;-60
2022/02/09 00:09:11;;;;;;;7.82;2.88;;;;;;;1.32;60.81;97455.19;5083966;28;20059;-60
2022/02/09 00:11:49;;;;;;;9.50;3.45;;;;;;;1.52;61.23;97512.94;5083301;28;20048;-60
2022/02/09 00:28:18;;;;;;;8.35;2.35;;;;;;;1.86;55.75;97427.09;5087715;28;20056;-58
2022/02/09 01:38:43;;;;;;;2.55;1.20;;;;;;;2.99;52.81;97492.28;5106030;28;20059;-60
2022/02/09 01:55:26;;;;;;;4.18;1.00;;;;;;;2.78;54.38;97475.56;5106217;28;20164;-61
2022/02/09 01:57:53;;;;;;;7.20;1.17;;;;;;;2.85;53.94;97480.59;5106559;28;20052;-59
2022/02/09 02:00:20;;;;;;;3.83;1.40;;;;;;;2.79;54.18;97468.16;5093940;28;20054;-57
2022/02/09 02:02:47;;;;;;;5.43;1.30;;;;;;;2.59;53.17;97444.81;5085539;28;20059;-62
2022/02/09 02:05:15;;;;;;;2.40;1.40;;;;;;;2.83;53.23;97463.66;5085924;28;20499;-58
2022/02/09 02:10:18;;;;;;;6.63;1.38;;;;;;;2.86;53.78;97504.13;5085761;28;20052;-57
2022/02/09 02:18:40;;;;;;;6.47;1.65;;;;;;;1.82;55.33;97355.09;5085204;28;20059;-58
2022/02/09 02:29:31;;;;;;;4.63;1.45;;;;;;;2.61;55.07;97501.94;5085161;28;20062;-58
2022/02/09 03:17:36;;;;;;;16.00;4.35;;;;;;;1.49;61.61;97480.78;5104593;28;20055;-58
2022/02/09 03:25:41;;;;;;;6.63;2.78;;;;;;;1.99;55.85;97445.41;5104818;28;20067;-59
2022/02/09 03:50:07;;;;;;;13.63;3.92;;;;;;;1.86;60.07;97474.34;5103898;28;20510;-61
2022/02/09 03:57:45;;;;;;;12.52;4.07;;;;;;;1.65;62.60;97484.03;5104269;28;20066;-60
2022/02/09 04:00:21;;;;;;;5.45;2.33;;;;;;;1.68;62.37;97504.44;5093405;28;20502;-57
2022/02/09 04:02:53;;;;;;;5.68;1.95;;;;;;;1.69;61.36;97490.53;5083939;28;20054;-57
2022/02/09 04:05:20;;;;;;;5.35;1.42;;;;;;;1.73;60.85;97485.25;5083920;28;20048;-59
2022/02/09 04:07:47;;;;;;;4.88;1.67;;;;;;;1.43;60.97;97427.41;5083314;28;20055;-60
2022/02/09 04:10:33;;;;;;;5.43;1.77;;;;;;;1.80;61.38;97475.56;5083205;28;20051;-60
2022/02/09 04:13:15;;;;;;;89.18;29.80;;;;;;;1.38;61.19;97402.94;5083536;28;20056;-58
2022/02/09 04:51:16;;;;;;;41.75;16.83;;;;;;;1.66;63.94;97512.94;5083067;28;20548;-60
2022/02/09 04:56:31;;;;;;;31.10;13.15;;;;;;;1.88;62.53;97525.94;5083285;28;20050;-59
2022/02/09 05:04:31;;;;;;;57.30;22.50;;;;;;;1.89;62.82;97511.16;5083639;28;20058;-56
2022/02/09 05:18:20;;;;;;;26.98;10.90;;;;;;;2.11;62.14;97509.31;5086771;28;20047;-59
2022/02/09 05:28:43;;;;;;;64.25;22.00;;;;;;;2.22;61.47;97504.44;5086563;28;20048;-57
2022/02/09 05:31:10;;;;;;;66.40;23.10;;;;;;;2.19;62.74;97510.53;5086568;28;20048;-59
2022/02/09 05:33:37;;;;;;;80.15;25.63;;;;;;;2.40;62.73;97544.53;5086584;28;20054;-57
2022/02/09 05:36:05;;;;;;;109.55;34.08;;;;;;;1.87;62.58;97516.09;5068129;28;20055;-58
2022/02/09 05:38:31;;;;;;;59.50;21.10;;;;;;;2.31;63.29;97585.41;5085843;28;20062;-59
2022/02/09 05:40:58;;;;;;;24.17;9.32;;;;;;;2.11;64.19;97553.03;5086202;28;20106;-55
2022/02/09 05:43:27;;;;;;;20.95;7.40;;;;;;;1.83;63.47;97480.41;5085863;28;20048;-57
2022/02/09 05:51:24;;;;;;;43.97;18.10;;;;;;;2.31;64.03;97521.78;5085455;28;20052;-60
2022/02/09 06:01:47;;;;;;;;;;;;;;;2.79;65.13;97585.78;5114674;27;20046;-60
2022/02/09 06:04:14;;;;;;;34.92;14.13;;;;;;;3.06;64.15;97585.72;5123843;27;19948;-61
2022/02/09 06:06:42;;;;;;;41.72;15.65;;;;;;;2.79;63.20;97531.06;5126246;27;20543;-58
2022/02/09 06:09:09;;;;;;;53.08;20.73;;;;;;;3.40;62.00;97564.06;5126634;27;20054;-58
2022/02/09 06:11:48;;;;;;;37.20;16.13;;;;;;;3.48;59.86;97533.19;5126414;27;20057;-59
2022/02/09 06:19:47;;;;;;;17.77;5.63;;;;;;;4.05;62.22;97569.75;5125489;27;20051;-58
2022/02/09 06:22:14;;;;;;;43.90;8.10;;;;;;;3.95;61.75;97590.03;5126595;27;20054;-58
2022/02/09 06:24:42;;;;;;;33.45;7.75;;;;;;;4.35;61.28;97586.19;5126481;27;20082;-57
2022/02/09 06:27:12;;;;;;;29.27;7.60;;;;;;;4.51;59.44;97595.63;5126235;27;20530;-59
2022/02/09 06:29:44;;;;;;;22.08;5.82;;;;;;;4.54;59.56;97622.41;5107432;27;20054;-57
2022/02/09 06:32:15;;;;;;;11.57;3.88;;;;;;;4.69;59.20;97613.72;5107137;27;20054;-58
2022/02/09 06:34:43;;;;;;;8.68;2.65;;;;;;;4.68;60.17;97573.72;5126087;27;20057;-58
2022/02/09 06:37:22;;;;;;;21.80;5.05;;;;;;;4.67;59.82;97563.06;5125363;27;20047;-58
2022/02/09 06:39:56;;;;;;;58.75;8.18;;;;;;;5.12;58.28;97627.53;5125885;27;20062;-58
2022/02/09 06:42:24;;;;;;;21.17;5.00;;;;;;;5.31;57.98;97602.53;5125883;27;20440;-59
2022/02/09 06:44:56;;;;;;;11.68;4.72;;;;;;;5.65;57.00;97613.50;5125964;27;20047;-59
2022/02/09 06:47:25;;;;;;;11.98;5.38;;;;;;;5.46;55.66;97604.78;5107597;27;20051;-58
2022/02/09 06:50:21;;;;;;;6.18;2.58;;;;;;;5.60;55.18;97605.44;5125292;27;20053;-59
2022/02/09 06:52:44;;;;;;;23.35;9.52;;;;;;;5.11;55.03;97529.84;5125109;27;20051;-59
2022/02/09 06:55:15;;;;;;;13.65;4.72;;;;;;;5.79;54.59;97581.16;5082731;28;20058;-57
2022/02/09 07:00:19;;;;;;;13.77;4.95;;;;;;;6.05;54.83;97618.47;5103583;28;20047;-56
2022/02/09 07:02:47;;;;;;;19.88;6.72;;;;;;;5.76;55.31;97642.28;5104975;28;20126;-56
2022/02/09 07:05:15;;;;;;;8.43;3.17;;;;;;;5.90;55.73;97632.75;5103327;28;20414;-55
2022/02/09 07:07:42;;;;;;;8.05;3.63;;;;;;;6.01;55.58;97660.72;5103833;28;20050;-55
2022/02/09 07:10:13;;;;;;;9.85;3.72;;;;;;;6.29;54.63;97634.47;5102673;28;20066;-56
2022/02/09 07:12:41;;;;;;;9.48;3.33;;;;;;;6.24;53.98;97659.41;5104274;28;20056;-59
2022/02/09 07:15:12;;;;;;;9.82;3.20;;;;;;;6.05;54.29;97595.69;5103565;28;20051;-58
2022/02/09 07:17:40;;;;;;;5.43;2.15;;;;;;;6.51;54.19;97650.75;5103282;28;20044;-58
2022/02/09 07:20:21;;;;;;;7.35;2.83;;;;;;;6.52;53.87;97611.06;5103633;28;20074;-59
2022/02/09 07:22:51;;;;;;;9.85;4.10;;;;;;;6.52;57.44;97638.59;5103649;28;20048;-56
2022/02/09 07:25:19;;;;;;;10.45;3.15;;;;;;;6.29;59.45;97609.72;5103442;28;20060;-59
2022/02/09 07:30:20;;;;;;;13.80;4.75;;;;;;;6.89;58.25;97656.25;5102635;28;20047;-57
2022/02/09 07:32:47;;;;;;;20.55;8.00;;;;;;;6.98;57.08;97646.78;5085808;28;20056;-59
2022/02/09 07:35:14;;;;;;;9.48;4.10;;;;;;;6.64;58.33;97602.91;5103630;28;20059;-58
2022/02/09 07:37:40;;;;;;;6.25;2.40;;;;;;;6.71;58.27;97597.69;5104253;28;20050;-58
2022/02/09 07:40:10;;;;;;;7.93;2.60;;;;;;;6.91;58.26;97607.94;5103217;28;20061;-59
2022/02/09 07:42:44;;;;;;;10.60;4.07;;;;;;;7.37;58.57;97643.63;5103290;28;20051;-58
2022/02/09 07:48:12;;;;;;;12.18;5.20;;;;;;;7.28;57.92;97618.09;5103005;28;20528;-58
2022/02/09 07:50:40;;;;;;;5.90;2.72;;;;;;;7.16;57.78;97598.72;5103028;28;20430;-56
2022/02/09 07:55:35;;;;;;;11.40;4.57;;;;;;;6.68;58.92;97548.81;5101812;28;20058;-58
2022/02/09 07:58:03;;;;;;;20.42;8.60;;;;;;;7.43;57.96;97663.50;5083529;28;20052;-59
2022/02/09 08:00:30;;;;;;;6.47;3.50;;;;;;;7.30;58.96;97662.63;5084635;28;20043;-58
2022/02/09 08:02:58;;;;;;;7.00;3.10;;;;;;;7.36;59.67;97666.81;5102283;28;20440;-59
2022/02/09 08:05:24;;;;;;;7.80;2.63;;;;;;;7.56;58.81;97679.81;5084073;28;20418;-60
2022/02/09 08:07:53;;;;;;;10.68;3.70;;;;;;;7.30;58.97;97637.03;5102875;28;20043;-61
2022/02/09 08:10:47;;;;;;;5.30;2.85;;;;;;;7.36;59.29;97633.75;5102127;28;20138;-59
2022/02/09 08:23:24;;;;;;;3.67;1.73;;;;;;;7.09;59.90;97570.91;5102868;28;20059;-57
2022/02/09 08:27:16;;;;;;;5.28;1.80;;;;;;;7.65;61.06;97644.69;5123739;28;20513;-55
2022/02/09 08:29:47;;;;;;;3.40;2.03;;;;;;;7.23;63.80;97636.75;5104433;28;20428;-55
2022/02/09 08:34:59;;;;;;;5.43;2.00;;;;;;;7.35;63.51;97661.66;5102848;28;20467;-60
2022/02/09 08:37:26;;;;;;;8.85;3.33;;;;;;;6.97;64.31;97614.88;5103312;28;20048;-57
2022/02/09 08:39:54;;;;;;;23.52;7.68;;;;;;;7.54;63.80;97684.84;5084915;28;20058;-55
2022/02/09 08:42:21;;;;;;;10.75;4.10;;;;;;;7.17;64.47;97658.19;5106206;28;20517;-59
2022/02/09 08:44:48;;;;;;;6.30;2.50;;;;;;;7.08;64.72;97651.91;5106676;28;20047;-59
2022/02/09 08:47:35;;;;;;;7.50;2.35;;;;;;;7.25;65.21;97673.88;5106724;28;20047;-59
2022/02/09 08:50:05;;;;;;;4.95;2.38;;;;;;;7.00;63.63;97625.22;5105946;28;20055;-56
2022/02/09 08:52:32;;;;;;;4.90;2.95;;;;;;;7.57;64.28;97714.50;5107252;28;20059;-58
2022/02/09 08:54:59;;;;;;;6.43;4.32;;;;;;;7.59;64.33;97716.91;5106696;28;20047;-59
2022/02/09 08:57:27;;;;;;;8.93;4.40;;;;;;;7.77;63.51;97695.53;5106783;28;20054;-58
2022/02/09 08:59:54;;;;;;;12.05;5.70;;;;;;;8.15;61.90;97707.25;5105774;28;20052;-61
2022/02/09 09:02:24;;;;;;;7.28;3.30;;;;;;;8.05;61.53;97682.81;5075477;28;20055;-59
2022/02/09 09:04:54;;;;;;;5.85;2.65;;;;;;;8.09;61.82;97697.56;5106294;28;20142;-56
2022/02/09 09:07:30;;;;;;;8.68;4.38;;;;;;;7.81;62.32;97674.44;5105835;28;20500;-59
2022/02/09 10:33:56;;;;;;;11.13;6.00;;;;;;;8.94;58.63;97693.91;5103558;28;20366;-58
2022/02/09 10:36:24;;;;;;;7.43;4.53;;;;;;;8.97;58.79;97707.03;5104704;28;20521;-61
2022/02/09 10:39:02;;;;;;;7.15;2.42;;;;;;;7.51;58.43;97462.25;5076038;28;20066;-58
2022/02/09 10:41:35;;;;;;;4.47;1.98;;;;;;;9.23;58.78;97715.81;5086178;28;20120;-55
2022/02/09 10:44:07;;;;;;;15.38;6.65;;;;;;;9.37;58.51;97699.69;5104201;28;20067;-59
2022/02/09 10:46:52;;;;;;;15.23;10.98;;;;;;;9.32;58.81;97708.22;5104263;28;20497;-58
2022/02/09 10:49:22;;;;;;;6.07;4.43;;;;;;;9.22;58.06;97658.91;5103799;28;20047;-58
2022/02/09 10:52:04;;;;;;;6.82;2.90;;;;;;;9.38;58.10;97701.28;5103547;28;20494;-63
2022/02/09 10:54:33;;;;;;;4.07;2.17;;;;;;;9.30;57.96;97702.22;5104302;28;20043;-58
2022/02/09 10:57:04;;;;;;;6.20;3.92;;;;;;;9.42;57.85;97702.19;5104317;28;20487;-60
2022/02/09 10:59:34;;;;;;;7.18;3.45;;;;;;;8.01;58.21;97519.13;5110075;27;20428;-56
2022/02/09 11:02:03;;;;;;;5.35;3.92;;;;;;;8.92;58.15;97663.06;5103931;28;20135;-58
2022/02/09 11:04:32;;;;;;;4.13;2.00;;;;;;;9.31;57.57;97712.13;5103683;28;20052;-57
2022/02/09 11:07:00;;;;;;;4.00;2.22;;;;;;;9.29;57.61;97713.63;5104147;28;20132;-58
2022/02/09 11:09:29;;;;;;;3.55;2.58;;;;;;;9.50;57.39;97720.63;5104315;28;20066;-58
2022/02/09 11:11:56;;;;;;;4.28;2.80;;;;;;;9.54;56.82;97710.50;5104164;28;20044;-55
2022/02/09 11:14:25;;;;;;;2.83;2.40;;;;;;;8.28;56.49;97477.13;5085748;28;20070;-58
2022/02/09 11:16:55;;;;;;;2.55;2.08;;;;;;;9.75;56.87;97708.41;5086263;28;20058;-57
2022/02/09 11:19:44;;;;;;;2.58;2.10;;;;;;;9.65;56.89;97661.84;5104009;28;20047;-56
2022/02/09 11:22:16;;;;;;;7.05;3.60;;;;;;;9.52;56.96;97657.50;5104285;28;20051;-58
2022/02/09 11:24:46;;;;;;;5.07;2.95;;;;;;;9.57;57.56;97671.09;5104024;28;20061;-59
2022/02/09 11:29:57;;;;;;;9.75;5.55;;;;;;;9.55;56.26;97584.88;5104210;28;20056;-56
2022/02/09 11:35:12;;;;;;;5.38;3.72;;;;;;;10.46;55.20;97703.78;5101389;28;20054;-57
2022/02/09 11:37:43;;;;;;;;;;;;;;;10.48;55.16;97707.03;5111403;27;20180;-58
2022/02/09 12:11:34;;;;;;;7.47;4.05;;;;;;;9.77;55.43;97708.06;5102572;28;20053;-57
2022/02/09 12:14:22;;;;;;;10.68;5.28;;;;;;;10.07;53.98;97678.94;5103659;28;20059;-56
2022/02/09 12:19:45;;;;;;;5.65;2.88;;;;;;;10.54;53.55;97688.19;5105769;28;20554;-58
2022/02/09 12:22:24;;;;;;;2.45;1.83;;;;;;;10.53;53.30;97698.47;5106485;28;20044;-56
2022/02/09 12:24:58;;;;;;;4.63;1.77;;;;;;;10.51;54.19;97703.53;5107120;28;20067;-58
2022/02/09 12:27:25;;;;;;;4.10;2.05;;;;;;;10.48;53.47;97712.56;5107303;28;20047;-58
2022/02/09 12:30:10;;;;;;;4.13;2.20;;;;;;;10.73;53.18;97702.97;5105735;28;20054;-56
2022/02/09 12:32:37;;;;;;;2.22;2.03;;;;;;;10.66;53.21;97708.34;5100748;28;20055;-58
2022/02/09 12:35:10;;;;;;;3.17;1.73;;;;;;;10.52;53.35;97690.50;5106698;28;20066;-57
2022/02/09 12:37:41;;;;;;;3.10;2.15;;;;;;;9.90;53.51;97580.38;5106633;28;20051;-60
2022/02/09 12:40:15;;;;;;;3.55;1.92;;;;;;;10.79;53.59;97708.25;5084957;28;20471;-59
2022/02/09 12:42:44;;;;;;;3.85;1.90;;;;;;;10.78;53.12;97714.97;5096384;28;20460;-55
2022/02/09 12:45:14;;;;;;;2.60;2.05;;;;;;;10.31;54.16;97673.28;5086857;28;20096;-57
2022/02/09 12:47:55;;;;;;;1.70;1.55;;;;;;;10.56;53.63;97699.72;5105768;28;20162;-56
2022/02/09 12:50:40;;;;;;;2.05;1.70;;;;;;;10.16;53.81;97646.38;5067549;28;20052;-56
2022/02/09 12:53:08;;;;;;;3.58;2.20;;;;;;;10.56;53.99;97703.28;5105266;28;20366;-58
2022/02/09 12:55:38;;;;;;;2.78;2.25;;;;;;;10.52;53.03;97683.00;5101083;28;20135;-58
2022/02/09 12:58:12;;;;;;;2.55;1.55;;;;;;;10.58;53.11;97700.97;5106623;28;20058;-58
2022/02/09 13:00:43;;;;;;;3.80;2.30;;;;;;;10.56;53.72;97708.84;5103634;28;20051;-61
2022/02/09 13:03:18;;;;;;;3.42;2.63;;;;;;;10.57;53.03;97681.94;5106811;28;20052;-59
2022/02/09 13:05:51;;;;;;;3.75;2.58;;;;;;;10.67;52.54;97711.88;5106316;28;20044;-57
2022/02/09 13:08:23;;;;;;;4.18;2.28;;;;;;;10.76;52.38;97706.19;5106756;28;20673;-58
2022/02/09 13:10:59;;;;;;;2.33;1.85;;;;;;;10.75;52.23;97712.91;5077167;28;20100;-57
2022/02/09 13:13:30;;;;;;;2.13;1.80;;;;;;;10.79;52.71;97706.28;5106261;28;20052;-59
2022/02/09 13:51:49;;;;;;;4.43;2.83;;;;;;;10.34;55.35;97678.94;5112621;27;20043;-57
2022/02/09 14:33:38;;;;;;;4.85;3.92;;;;;;;12.26;45.02;97675.72;5110783;27;20043;-61
2022/02/09 14:56:50;;;;;;;18.83;11.90;;;;;;;11.30;48.08;97671.94;5124662;27;20255;-57
2022/02/09 15:02:19;;;;;;;15.60;9.05;;;;;;;11.32;47.01;97688.22;5096804;28;20050;-58
2022/02/09 15:09:50;;;;;;;12.07;7.07;;;;;;;11.02;47.59;97659.38;5104625;28;20047;-57
2022/02/09 15:12:32;;;;;;;8.18;5.63;;;;;;;9.44;47.51;97417.88;5104709;28;20154;-57
2022/02/09 15:15:22;;;;;;;7.15;4.75;;;;;;;10.73;47.65;97663.38;5104642;28;20134;-59
2022/02/09 15:23:11;;;;;;;25.67;11.52;;;;;;;10.62;49.91;97712.16;5104534;28;20203;-56
2022/02/09 15:25:38;;;;;;;51.53;20.23;;;;;;;10.63;49.15;97713.78;5104770;28;20043;-59
2022/02/09 15:28:06;;;;;;;39.47;18.80;;;;;;;10.32;49.68;97675.72;5104359;28;20604;-56
2022/02/09 15:30:44;;;;;;;38.58;16.52;;;;;;;10.06;50.53;97664.28;5104262;28;20079;-57
2022/02/09 15:33:11;;;;;;;17.25;8.73;;;;;;;9.76;51.72;97695.38;5104272;28;20052;-57
2022/02/09 15:35:41;;;;;;;14.55;6.80;;;;;;;7.98;52.27;97426.84;5103858;28;20134;-59
2022/02/09 15:40:51;;;;;;;25.58;12.43;;;;;;;9.68;53.28;97688.81;5104277;28;20055;-57
2022/02/09 15:43:41;;;;;;;27.42;12.55;;;;;;;9.46;53.72;97664.41;5104264;28;20058;-58
2022/02/09 15:57:45;;;;;;;29.35;11.27;;;;;;;8.93;58.25;97711.66;5103673;28;20526;-58
2022/02/09 16:05:41;;;;;;;12.35;7.10;;;;;;;8.75;58.58;97759.94;5103982;28;20203;-58
2022/02/09 16:11:13;;;;;;;26.35;14.15;;;;;;;8.70;58.21;97724.25;5103718;28;20048;-57
2022/02/09 16:19:46;;;;;;;80.15;35.15;;;;;;;8.68;58.42;97732.06;5104596;28;20055;-58
